Terminal Aerodrome Forecast
Issued by NWS Cleveland, OH

Home | Current Version | Previous Version | Graphics & Text | Print | Product List | Glossary Off
Versions: 1 2 3 4 5 6 7 8 9 10 11 12 13 14

000
FTUS41 KCLE 191455 AAA
TAFERI
TAF AMD
KERI 191455Z 1915/2012 27008KT P6SM BKN050
      TEMPO 1915/1917 4SM -TSRA BR OVC035CB
     FM191700 27013KT P6SM VCTS BKN040CB OVC100
     FM192100 28010KT P6SM SCT040 SCT100
     FM200400 18006KT P6SM FEW050=

USA.gov is the U.S. government's official web portal to all federal, state and local government web resources and services.